sensor_id;sensor_type;location;lat;lon;timestamp;P1;durP1;ratioP1;P2;durP2;ratioP2
6651;SDS011;3362;50.892;10.692;2023-05-06T00:00:15;5.00;;;2.65;;
6651;SDS011;3362;50.892;10.692;2023-05-06T00:02:41;2.90;;;1.75;;
6651;SDS011;3362;50.892;10.692;2023-05-06T00:05:09;8.73;;;2.35;;
6651;SDS011;3362;50.892;10.692;2023-05-06T00:07:35;5.22;;;2.60;;
6651;SDS011;3362;50.892;10.692;2023-05-06T00:10:02;4.13;;;2.33;;
6651;SDS011;3362;50.892;10.692;2023-05-06T00:12:28;2.88;;;2.00;;
6651;SDS011;3362;50.892;10.692;2023-05-06T00:14:54;4.03;;;2.60;;
6651;SDS011;3362;50.892;10.692;2023-05-06T00:17:20;2.42;;;1.77;;
6651;SDS011;3362;50.892;10.692;2023-05-06T00:19:47;2.63;;;2.00;;
6651;SDS011;3362;50.892;10.692;2023-05-06T00:22:14;3.50;;;2.35;;
6651;SDS011;3362;50.892;10.692;2023-05-06T00:24:41;4.63;;;2.90;;
6651;SDS011;3362;50.892;10.692;2023-05-06T00:27:07;3.20;;;2.20;;
6651;SDS011;3362;50.892;10.692;2023-05-06T00:29:33;3.70;;;2.10;;
6651;SDS011;3362;50.892;10.692;2023-05-06T00:32:00;4.88;;;2.17;;
6651;SDS011;3362;50.892;10.692;2023-05-06T00:34:26;4.95;;;2.58;;
6651;SDS011;3362;50.892;10.692;2023-05-06T00:36:52;3.58;;;2.38;;
6651;SDS011;3362;50.892;10.692;2023-05-06T00:39:19;4.53;;;2.30;;
6651;SDS011;3362;50.892;10.692;2023-05-06T00:41:46;8.25;;;2.53;;
6651;SDS011;3362;50.892;10.692;2023-05-06T00:44:12;3.92;;;2.45;;
6651;SDS011;3362;50.892;10.692;2023-05-06T00:46:39;4.75;;;2.72;;
6651;SDS011;3362;50.892;10.692;2023-05-06T00:49:05;3.92;;;2.75;;
6651;SDS011;3362;50.892;10.692;2023-05-06T00:51:31;6.47;;;2.80;;
6651;SDS011;3362;50.892;10.692;2023-05-06T00:53:57;5.72;;;2.53;;
6651;SDS011;3362;50.892;10.692;2023-05-06T00:56:25;4.22;;;2.55;;
6651;SDS011;3362;50.892;10.692;2023-05-06T00:58:51;3.90;;;2.25;;
6651;SDS011;3362;50.892;10.692;2023-05-06T01:01:18;5.60;;;2.60;;
6651;SDS011;3362;50.892;10.692;2023-05-06T01:03:46;2.83;;;1.67;;
6651;SDS011;3362;50.892;10.692;2023-05-06T01:06:15;3.63;;;1.83;;
6651;SDS011;3362;50.892;10.692;2023-05-06T01:08:46;3.10;;;2.25;;
6651;SDS011;3362;50.892;10.692;2023-05-06T01:11:15;2.03;;;1.60;;
6651;SDS011;3362;50.892;10.692;2023-05-06T01:13:46;2.85;;;1.83;;
6651;SDS011;3362;50.892;10.692;2023-05-06T01:16:13;4.43;;;2.28;;
6651;SDS011;3362;50.892;10.692;2023-05-06T01:18:40;3.42;;;2.20;;
6651;SDS011;3362;50.892;10.692;2023-05-06T01:21:07;4.10;;;2.53;;
6651;SDS011;3362;50.892;10.692;2023-05-06T01:23:51;4.70;;;2.42;;
6651;SDS011;3362;50.892;10.692;2023-05-06T01:26:17;5.97;;;2.15;;
6651;SDS011;3362;50.892;10.692;2023-05-06T01:28:43;4.80;;;2.58;;
6651;SDS011;3362;50.892;10.692;2023-05-06T01:31:11;2.45;;;2.25;;
6651;SDS011;3362;50.892;10.692;2023-05-06T01:33:39;2.50;;;1.92;;
6651;SDS011;3362;50.892;10.692;2023-05-06T01:36:09;4.80;;;2.22;;
6651;SDS011;3362;50.892;10.692;2023-05-06T01:38:36;3.08;;;2.00;;
6651;SDS011;3362;50.892;10.692;2023-05-06T01:41:07;4.85;;;2.00;;
6651;SDS011;3362;50.892;10.692;2023-05-06T01:43:36;3.40;;;2.22;;
6651;SDS011;3362;50.892;10.692;2023-05-06T01:46:03;3.50;;;2.17;;
6651;SDS011;3362;50.892;10.692;2023-05-06T01:48:31;3.17;;;2.38;;
6651;SDS011;3362;50.892;10.692;2023-05-06T01:50:58;1.73;;;1.58;;
6651;SDS011;3362;50.892;10.692;2023-05-06T01:53:24;1.88;;;1.58;;
6651;SDS011;3362;50.892;10.692;2023-05-06T01:55:51;1.75;;;1.63;;
6651;SDS011;3362;50.892;10.692;2023-05-06T01:58:18;2.38;;;1.73;;
6651;SDS011;3362;50.892;10.692;2023-05-06T02:00:44;2.83;;;1.88;;
6651;SDS011;3362;50.892;10.692;2023-05-06T02:03:11;1.88;;;1.50;;
6651;SDS011;3362;50.892;10.692;2023-05-06T02:05:37;1.85;;;1.33;;
6651;SDS011;3362;50.892;10.692;2023-05-06T02:08:03;3.45;;;1.38;;
6651;SDS011;3362;50.892;10.692;2023-05-06T02:10:29;4.53;;;1.60;;
6651;SDS011;3362;50.892;10.692;2023-05-06T02:12:56;1.35;;;1.10;;
6651;SDS011;3362;50.892;10.692;2023-05-06T02:15:23;1.63;;;1.08;;
6651;SDS011;3362;50.892;10.692;2023-05-06T02:17:49;1.75;;;1.42;;
6651;SDS011;3362;50.892;10.692;2023-05-06T02:20:16;2.42;;;1.63;;
6651;SDS011;3362;50.892;10.692;2023-05-06T02:22:42;1.92;;;1.40;;
6651;SDS011;3362;50.892;10.692;2023-05-06T02:25:08;2.22;;;1.63;;
6651;SDS011;3362;50.892;10.692;2023-05-06T02:27:34;2.55;;;1.63;;
6651;SDS011;3362;50.892;10.692;2023-05-06T02:30:01;2.08;;;1.25;;
6651;SDS011;3362;50.892;10.692;2023-05-06T02:32:28;4.20;;;1.48;;
6651;SDS011;3362;50.892;10.692;2023-05-06T02:34:55;2.75;;;1.77;;
6651;SDS011;3362;50.892;10.692;2023-05-06T02:37:21;3.17;;;1.85;;
6651;SDS011;3362;50.892;10.692;2023-05-06T02:39:47;5.03;;;2.97;;
6651;SDS011;3362;50.892;10.692;2023-05-06T02:42:13;13.35;;;2.90;;
6651;SDS011;3362;50.892;10.692;2023-05-06T02:44:40;7.20;;;2.72;;
6651;SDS011;3362;50.892;10.692;2023-05-06T02:47:06;8.80;;;2.80;;
6651;SDS011;3362;50.892;10.692;2023-05-06T02:49:33;8.20;;;3.25;;
6651;SDS011;3362;50.892;10.692;2023-05-06T02:52:00;43.65;;;4.22;;
6651;SDS011;3362;50.892;10.692;2023-05-06T02:54:26;17.13;;;4.13;;
6651;SDS011;3362;50.892;10.692;2023-05-06T02:56:52;41.22;;;4.80;;
6651;SDS011;3362;50.892;10.692;2023-05-06T02:59:18;18.95;;;4.35;;
6651;SDS011;3362;50.892;10.692;2023-05-06T03:01:45;28.50;;;4.28;;
6651;SDS011;3362;50.892;10.692;2023-05-06T03:04:11;32.88;;;5.22;;
6651;SDS011;3362;50.892;10.692;2023-05-06T03:06:38;80.45;;;6.28;;
6651;SDS011;3362;50.892;10.692;2023-05-06T03:09:04;95.38;;;6.40;;
6651;SDS011;3362;50.892;10.692;2023-05-06T03:11:31;90.95;;;6.15;;
6651;SDS011;3362;50.892;10.692;2023-05-06T03:13:57;110.85;;;6.80;;
6651;SDS011;3362;50.892;10.692;2023-05-06T03:16:23;92.32;;;6.20;;
6651;SDS011;3362;50.892;10.692;2023-05-06T03:18:50;144.43;;;7.35;;
6651;SDS011;3362;50.892;10.692;2023-05-06T03:21:16;83.82;;;6.43;;
6651;SDS011;3362;50.892;10.692;2023-05-06T03:23:44;86.25;;;6.28;;
6651;SDS011;3362;50.892;10.692;2023-05-06T03:26:10;37.47;;;5.63;;
6651;SDS011;3362;50.892;10.692;2023-05-06T03:28:36;85.82;;;6.35;;
6651;SDS011;3362;50.892;10.692;2023-05-06T03:31:02;145.00;;;7.38;;
6651;SDS011;3362;50.892;10.692;2023-05-06T03:33:29;122.32;;;6.90;;
6651;SDS011;3362;50.892;10.692;2023-05-06T03:35:55;82.75;;;6.22;;
6651;SDS011;3362;50.892;10.692;2023-05-06T03:38:21;149.70;;;13.95;;
6651;SDS011;3362;50.892;10.692;2023-05-06T03:40:48;108.43;;;7.72;;
6651;SDS011;3362;50.892;10.692;2023-05-06T03:43:15;59.35;;;5.18;;
6651;SDS011;3362;50.892;10.692;2023-05-06T03:45:41;39.80;;;7.22;;
6651;SDS011;3362;50.892;10.692;2023-05-06T03:48:07;11.05;;;4.72;;
6651;SDS011;3362;50.892;10.692;2023-05-06T03:50:34;149.13;;;7.60;;
6651;SDS011;3362;50.892;10.692;2023-05-06T03:53:00;207.02;;;11.85;;
6651;SDS011;3362;50.892;10.692;2023-05-06T03:55:26;231.25;;;10.20;;
6651;SDS011;3362;50.892;10.692;2023-05-06T03:57:54;233.85;;;9.80;;
6651;SDS011;3362;50.892;10.692;2023-05-06T04:00:20;235.07;;;18.92;;
6651;SDS011;3362;50.892;10.692;2023-05-06T04:02:46;268.08;;;10.55;;
6651;SDS011;3362;50.892;10.692;2023-05-06T04:05:13;108.15;;;14.02;;
6651;SDS011;3362;50.892;10.692;2023-05-06T04:07:39;118.55;;;6.00;;
6651;SDS011;3362;50.892;10.692;2023-05-06T04:10:06;113.97;;;5.95;;
6651;SDS011;3362;50.892;10.692;2023-05-06T04:12:32;85.00;;;5.78;;
6651;SDS011;3362;50.892;10.692;2023-05-06T04:15:00;72.75;;;5.13;;
6651;SDS011;3362;50.892;10.692;2023-05-06T04:17:26;58.10;;;5.82;;
6651;SDS011;3362;50.892;10.692;2023-05-06T04:19:52;110.53;;;8.13;;
6651;SDS011;3362;50.892;10.692;2023-05-06T04:22:18;52.05;;;5.57;;
6651;SDS011;3362;50.892;10.692;2023-05-06T04:24:45;26.92;;;5.45;;
6651;SDS011;3362;50.892;10.692;2023-05-06T04:27:11;48.88;;;5.07;;
6651;SDS011;3362;50.892;10.692;2023-05-06T04:29:37;64.82;;;7.25;;
6651;SDS011;3362;50.892;10.692;2023-05-06T04:32:05;79.47;;;5.30;;
6651;SDS011;3362;50.892;10.692;2023-05-06T04:34:31;106.22;;;7.30;;
6651;SDS011;3362;50.892;10.692;2023-05-06T04:37:00;39.22;;;5.63;;
6651;SDS011;3362;50.892;10.692;2023-05-06T04:39:26;37.47;;;5.93;;
6651;SDS011;3362;50.892;10.692;2023-05-06T04:41:52;96.60;;;7.20;;
6651;SDS011;3362;50.892;10.692;2023-05-06T04:44:18;63.65;;;7.70;;
6651;SDS011;3362;50.892;10.692;2023-05-06T04:46:45;56.88;;;8.15;;
6651;SDS011;3362;50.892;10.692;2023-05-06T04:49:12;143.18;;;10.23;;
6651;SDS011;3362;50.892;10.692;2023-05-06T04:51:39;59.88;;;7.90;;
6651;SDS011;3362;50.892;10.692;2023-05-06T04:54:05;17.00;;;7.55;;
6651;SDS011;3362;50.892;10.692;2023-05-06T04:56:31;33.03;;;7.45;;
6651;SDS011;3362;50.892;10.692;2023-05-06T04:58:58;240.23;;;14.13;;
6651;SDS011;3362;50.892;10.692;2023-05-06T05:01:24;11.57;;;7.07;;
6651;SDS011;3362;50.892;10.692;2023-05-06T05:03:50;65.15;;;8.25;;
6651;SDS011;3362;50.892;10.692;2023-05-06T05:06:18;132.07;;;9.27;;
6651;SDS011;3362;50.892;10.692;2023-05-06T05:08:44;112.15;;;9.02;;
6651;SDS011;3362;50.892;10.692;2023-05-06T05:11:10;11.45;;;6.35;;
6651;SDS011;3362;50.892;10.692;2023-05-06T05:13:37;16.65;;;6.43;;
6651;SDS011;3362;50.892;10.692;2023-05-06T05:16:04;43.05;;;7.47;;
6651;SDS011;3362;50.892;10.692;2023-05-06T05:18:30;68.28;;;7.70;;
6651;SDS011;3362;50.892;10.692;2023-05-06T05:20:56;48.75;;;7.80;;
6651;SDS011;3362;50.892;10.692;2023-05-06T05:23:24;44.80;;;7.45;;
6651;SDS011;3362;50.892;10.692;2023-05-06T05:25:50;27.52;;;7.32;;
6651;SDS011;3362;50.892;10.692;2023-05-06T05:28:16;12.93;;;8.05;;
6651;SDS011;3362;50.892;10.692;2023-05-06T05:30:43;14.20;;;7.88;;
6651;SDS011;3362;50.892;10.692;2023-05-06T05:33:09;15.35;;;8.20;;
6651;SDS011;3362;50.892;10.692;2023-05-06T05:35:35;12.18;;;7.53;;
6651;SDS011;3362;50.892;10.692;2023-05-06T05:38:01;14.10;;;8.23;;
6651;SDS011;3362;50.892;10.692;2023-05-06T05:40:29;11.48;;;7.13;;
6651;SDS011;3362;50.892;10.692;2023-05-06T05:42:55;10.93;;;6.82;;
6651;SDS011;3362;50.892;10.692;2023-05-06T05:45:21;11.57;;;6.72;;
6651;SDS011;3362;50.892;10.692;2023-05-06T05:47:48;9.40;;;6.03;;
6651;SDS011;3362;50.892;10.692;2023-05-06T05:50:14;11.13;;;6.30;;
6651;SDS011;3362;50.892;10.692;2023-05-06T05:52:40;10.15;;;5.82;;
6651;SDS011;3362;50.892;10.692;2023-05-06T05:55:06;9.68;;;6.40;;
6651;SDS011;3362;50.892;10.692;2023-05-06T05:57:34;9.27;;;6.18;;
6651;SDS011;3362;50.892;10.692;2023-05-06T06:00:00;9.13;;;6.93;;
6651;SDS011;3362;50.892;10.692;2023-05-06T06:02:27;11.65;;;7.03;;
6651;SDS011;3362;50.892;10.692;2023-05-06T06:04:53;9.13;;;5.97;;
6651;SDS011;3362;50.892;10.692;2023-05-06T06:07:19;11.88;;;7.60;;
6651;SDS011;3362;50.892;10.692;2023-05-06T06:09:46;10.00;;;6.55;;
6651;SDS011;3362;50.892;10.692;2023-05-06T06:12:12;13.60;;;7.28;;
6651;SDS011;3362;50.892;10.692;2023-05-06T06:14:40;11.45;;;6.85;;
6651;SDS011;3362;50.892;10.692;2023-05-06T06:17:11;9.13;;;5.20;;
6651;SDS011;3362;50.892;10.692;2023-05-06T06:19:38;9.93;;;6.07;;
6651;SDS011;3362;50.892;10.692;2023-05-06T06:22:04;9.10;;;5.32;;
6651;SDS011;3362;50.892;10.692;2023-05-06T06:24:30;6.70;;;4.90;;
6651;SDS011;3362;50.892;10.692;2023-05-06T06:26:58;7.20;;;4.53;;
6651;SDS011;3362;50.892;10.692;2023-05-06T06:29:25;9.57;;;5.60;;
6651;SDS011;3362;50.892;10.692;2023-05-06T06:31:52;6.25;;;3.80;;
6651;SDS011;3362;50.892;10.692;2023-05-06T06:34:19;8.85;;;4.35;;
6651;SDS011;3362;50.892;10.692;2023-05-06T06:36:46;5.68;;;3.80;;
6651;SDS011;3362;50.892;10.692;2023-05-06T06:39:12;6.40;;;4.25;;
6651;SDS011;3362;50.892;10.692;2023-05-06T06:41:38;5.25;;;3.78;;
6651;SDS011;3362;50.892;10.692;2023-05-06T06:44:04;7.20;;;4.20;;
6651;SDS011;3362;50.892;10.692;2023-05-06T06:46:30;6.60;;;4.10;;
6651;SDS011;3362;50.892;10.692;2023-05-06T06:48:58;6.18;;;3.83;;
6651;SDS011;3362;50.892;10.692;2023-05-06T06:51:25;7.30;;;4.05;;
6651;SDS011;3362;50.892;10.692;2023-05-06T06:53:51;5.70;;;3.95;;
6651;SDS011;3362;50.892;10.692;2023-05-06T06:56:18;4.53;;;3.50;;
6651;SDS011;3362;50.892;10.692;2023-05-06T06:58:44;4.78;;;3.25;;
6651;SDS011;3362;50.892;10.692;2023-05-06T07:01:10;5.45;;;3.65;;
6651;SDS011;3362;50.892;10.692;2023-05-06T07:03:36;5.22;;;3.65;;
6651;SDS011;3362;50.892;10.692;2023-05-06T07:06:04;4.45;;;3.38;;
6651;SDS011;3362;50.892;10.692;2023-05-06T07:08:30;7.68;;;3.97;;
6651;SDS011;3362;50.892;10.692;2023-05-06T07:10:56;5.38;;;3.45;;
6651;SDS011;3362;50.892;10.692;2023-05-06T07:13:23;4.28;;;3.20;;
6651;SDS011;3362;50.892;10.692;2023-05-06T07:15:49;6.20;;;3.53;;
6651;SDS011;3362;50.892;10.692;2023-05-06T07:18:15;4.95;;;3.58;;
6651;SDS011;3362;50.892;10.692;2023-05-06T07:20:41;3.97;;;3.35;;
6651;SDS011;3362;50.892;10.692;2023-05-06T07:23:09;7.43;;;3.28;;
6651;SDS011;3362;50.892;10.692;2023-05-06T07:25:35;4.35;;;2.90;;
6651;SDS011;3362;50.892;10.692;2023-05-06T07:28:02;4.65;;;3.42;;
6651;SDS011;3362;50.892;10.692;2023-05-06T07:30:29;4.28;;;3.35;;
6651;SDS011;3362;50.892;10.692;2023-05-06T07:32:55;4.85;;;3.65;;
6651;SDS011;3362;50.892;10.692;2023-05-06T07:35:21;5.10;;;3.17;;
6651;SDS011;3362;50.892;10.692;2023-05-06T07:37:47;4.90;;;3.15;;
6651;SDS011;3362;50.892;10.692;2023-05-06T07:40:15;3.75;;;3.00;;
6651;SDS011;3362;50.892;10.692;2023-05-06T07:42:41;4.63;;;3.40;;
6651;SDS011;3362;50.892;10.692;2023-05-06T07:45:08;4.97;;;3.05;;
6651;SDS011;3362;50.892;10.692;2023-05-06T07:47:35;3.92;;;2.67;;
6651;SDS011;3362;50.892;10.692;2023-05-06T07:50:01;4.10;;;3.40;;
6651;SDS011;3362;50.892;10.692;2023-05-06T07:52:29;3.03;;;2.70;;
6651;SDS011;3362;50.892;10.692;2023-05-06T07:54:55;4.22;;;3.25;;
6651;SDS011;3362;50.892;10.692;2023-05-06T07:57:22;4.00;;;3.00;;
6651;SDS011;3362;50.892;10.692;2023-05-06T07:59:49;4.47;;;3.03;;
6651;SDS011;3362;50.892;10.692;2023-05-06T08:02:16;4.63;;;3.05;;
6651;SDS011;3362;50.892;10.692;2023-05-06T08:04:43;4.70;;;3.13;;
6651;SDS011;3362;50.892;10.692;2023-05-06T08:07:10;5.18;;;3.67;;
6651;SDS011;3362;50.892;10.692;2023-05-06T08:09:36;4.05;;;2.90;;
6651;SDS011;3362;50.892;10.692;2023-05-06T08:12:02;4.35;;;3.47;;
6651;SDS011;3362;50.892;10.692;2023-05-06T08:14:30;4.85;;;3.05;;
6651;SDS011;3362;50.892;10.692;2023-05-06T08:16:56;3.95;;;2.88;;
6651;SDS011;3362;50.892;10.692;2023-05-06T08:19:23;3.05;;;2.25;;
6651;SDS011;3362;50.892;10.692;2023-05-06T08:21:50;3.63;;;1.65;;
6651;SDS011;3362;50.892;10.692;2023-05-06T08:24:16;2.45;;;2.00;;
6651;SDS011;3362;50.892;10.692;2023-05-06T08:26:43;3.08;;;1.98;;
6651;SDS011;3362;50.892;10.692;2023-05-06T08:29:09;4.30;;;2.60;;
6651;SDS011;3362;50.892;10.692;2023-05-06T08:31:36;3.35;;;2.42;;
6651;SDS011;3362;50.892;10.692;2023-05-06T08:34:03;3.65;;;2.15;;
6651;SDS011;3362;50.892;10.692;2023-05-06T08:36:29;3.40;;;2.58;;
6651;SDS011;3362;50.892;10.692;2023-05-06T08:38:56;3.50;;;2.13;;
6651;SDS011;3362;50.892;10.692;2023-05-06T08:41:22;2.35;;;1.98;;
6651;SDS011;3362;50.892;10.692;2023-05-06T08:43:49;1.95;;;1.65;;
6651;SDS011;3362;50.892;10.692;2023-05-06T08:46:15;2.55;;;1.90;;
6651;SDS011;3362;50.892;10.692;2023-05-06T08:48:43;4.10;;;1.50;;
6651;SDS011;3362;50.892;10.692;2023-05-06T08:51:09;2.15;;;1.52;;
6651;SDS011;3362;50.892;10.692;2023-05-06T08:53:38;1.50;;;1.10;;
6651;SDS011;3362;50.892;10.692;2023-05-06T08:56:05;1.58;;;1.48;;
6651;SDS011;3362;50.892;10.692;2023-05-06T08:58:32;5.47;;;3.00;;
6651;SDS011;3362;50.892;10.692;2023-05-06T09:00:59;4.43;;;2.25;;
6651;SDS011;3362;50.892;10.692;2023-05-06T09:03:25;2.10;;;1.80;;
6651;SDS011;3362;50.892;10.692;2023-05-06T09:05:53;2.58;;;1.67;;
6651;SDS011;3362;50.892;10.692;2023-05-06T09:08:19;1.35;;;1.25;;
6651;SDS011;3362;50.892;10.692;2023-05-06T09:10:45;1.65;;;1.52;;
6651;SDS011;3362;50.892;10.692;2023-05-06T09:13:12;1.88;;;1.50;;
6651;SDS011;3362;50.892;10.692;2023-05-06T09:15:38;1.83;;;1.45;;
6651;SDS011;3362;50.892;10.692;2023-05-06T09:18:05;2.65;;;1.33;;
6651;SDS011;3362;50.892;10.692;2023-05-06T09:20:32;1.80;;;1.60;;
6651;SDS011;3362;50.892;10.692;2023-05-06T09:22:59;3.13;;;1.90;;
6651;SDS011;3362;50.892;10.692;2023-05-06T09:25:26;2.40;;;1.83;;
6651;SDS011;3362;50.892;10.692;2023-05-06T09:27:54;2.70;;;1.60;;
6651;SDS011;3362;50.892;10.692;2023-05-06T09:30:27;2.05;;;1.35;;
6651;SDS011;3362;50.892;10.692;2023-05-06T09:32:54;5.65;;;1.45;;
6651;SDS011;3362;50.892;10.692;2023-05-06T09:35:20;1.30;;;1.13;;
6651;SDS011;3362;50.892;10.692;2023-05-06T09:37:46;6.00;;;1.55;;
6651;SDS011;3362;50.892;10.692;2023-05-06T09:40:14;1.67;;;0.85;;
6651;SDS011;3362;50.892;10.692;2023-05-06T09:42:42;1.05;;;0.95;;
6651;SDS011;3362;50.892;10.692;2023-05-06T09:45:08;0.88;;;0.70;;
6651;SDS011;3362;50.892;10.692;2023-05-06T09:47:34;4.13;;;0.70;;
6651;SDS011;3362;50.892;10.692;2023-05-06T09:50:02;1.15;;;0.98;;
6651;SDS011;3362;50.892;10.692;2023-05-06T09:52:28;0.88;;;0.80;;
6651;SDS011;3362;50.892;10.692;2023-05-06T09:54:55;1.30;;;1.00;;
6651;SDS011;3362;50.892;10.692;2023-05-06T09:57:23;4.57;;;1.05;;
6651;SDS011;3362;50.892;10.692;2023-05-06T09:59:49;1.65;;;1.08;;
6651;SDS011;3362;50.892;10.692;2023-05-06T10:02:16;0.98;;;0.88;;
6651;SDS011;3362;50.892;10.692;2023-05-06T10:04:42;1.02;;;0.90;;
6651;SDS011;3362;50.892;10.692;2023-05-06T10:07:09;1.40;;;0.90;;
6651;SDS011;3362;50.892;10.692;2023-05-06T10:09:37;1.60;;;1.25;;
6651;SDS011;3362;50.892;10.692;2023-05-06T10:12:04;5.80;;;0.90;;
6651;SDS011;3362;50.892;10.692;2023-05-06T10:14:32;1.52;;;0.40;;
6651;SDS011;3362;50.892;10.692;2023-05-06T10:16:59;0.60;;;0.60;;
6651;SDS011;3362;50.892;10.692;2023-05-06T10:19:25;1.92;;;1.00;;
6651;SDS011;3362;50.892;10.692;2023-05-06T10:21:53;1.20;;;0.90;;
6651;SDS011;3362;50.892;10.692;2023-05-06T10:24:21;1.08;;;0.80;;
6651;SDS011;3362;50.892;10.692;2023-05-06T10:26:49;1.27;;;0.88;;
6651;SDS011;3362;50.892;10.692;2023-05-06T10:29:15;0.98;;;0.80;;
6651;SDS011;3362;50.892;10.692;2023-05-06T10:31:45;1.00;;;0.63;;
6651;SDS011;3362;50.892;10.692;2023-05-06T10:34:13;1.20;;;0.80;;
6651;SDS011;3362;50.892;10.692;2023-05-06T10:36:40;1.75;;;0.75;;
6651;SDS011;3362;50.892;10.692;2023-05-06T10:39:08;0.80;;;0.80;;
6651;SDS011;3362;50.892;10.692;2023-05-06T10:41:36;2.15;;;0.90;;
6651;SDS011;3362;50.892;10.692;2023-05-06T10:44:03;1.58;;;1.10;;
6651;SDS011;3362;50.892;10.692;2023-05-06T10:46:30;2.38;;;1.27;;
6651;SDS011;3362;50.892;10.692;2023-05-06T10:49:16;1.20;;;0.90;;
6651;SDS011;3362;50.892;10.692;2023-05-06T10:51:44;1.15;;;0.60;;
6651;SDS011;3362;50.892;10.692;2023-05-06T10:54:11;1.13;;;1.02;;
6651;SDS011;3362;50.892;10.692;2023-05-06T10:59:27;2.67;;;0.80;;
6651;SDS011;3362;50.892;10.692;2023-05-06T11:01:55;2.50;;;0.90;;
6651;SDS011;3362;50.892;10.692;2023-05-06T11:04:26;1.27;;;0.50;;
6651;SDS011;3362;50.892;10.692;2023-05-06T11:06:54;0.40;;;0.40;;
6651;SDS011;3362;50.892;10.692;2023-05-06T11:09:31;0.95;;;0.65;;
6651;SDS011;3362;50.892;10.692;2023-05-06T11:11:58;1.13;;;0.50;;
6651;SDS011;3362;50.892;10.692;2023-05-06T11:14:29;0.60;;;0.40;;
6651;SDS011;3362;50.892;10.692;2023-05-06T11:16:56;0.68;;;0.40;;
6651;SDS011;3362;50.892;10.692;2023-05-06T11:19:22;2.88;;;0.73;;
6651;SDS011;3362;50.892;10.692;2023-05-06T11:21:51;1.35;;;0.60;;
6651;SDS011;3362;50.892;10.692;2023-05-06T11:24:24;2.90;;;0.50;;
6651;SDS011;3362;50.892;10.692;2023-05-06T11:26:50;2.20;;;0.60;;
6651;SDS011;3362;50.892;10.692;2023-05-06T11:29:17;2.35;;;0.50;;
6651;SDS011;3362;50.892;10.692;2023-05-06T11:31:44;0.73;;;0.60;;
6651;SDS011;3362;50.892;10.692;2023-05-06T11:34:11;0.60;;;0.60;;
6651;SDS011;3362;50.892;10.692;2023-05-06T11:36:47;2.97;;;0.90;;
6651;SDS011;3362;50.892;10.692;2023-05-06T11:39:15;1.33;;;0.60;;
6651;SDS011;3362;50.892;10.692;2023-05-06T11:41:41;1.77;;;0.60;;
6651;SDS011;3362;50.892;10.692;2023-05-06T11:44:07;3.85;;;0.70;;
6651;SDS011;3362;50.892;10.692;2023-05-06T11:46:36;0.40;;;0.40;;
6651;SDS011;3362;50.892;10.692;2023-05-06T11:49:02;3.58;;;0.60;;
6651;SDS011;3362;50.892;10.692;2023-05-06T11:51:28;1.05;;;0.80;;
6651;SDS011;3362;50.892;10.692;2023-05-06T11:54:02;0.93;;;0.60;;
6651;SDS011;3362;50.892;10.692;2023-05-06T11:56:30;1.20;;;0.60;;
6651;SDS011;3362;50.892;10.692;2023-05-06T11:59:06;0.98;;;0.80;;
6651;SDS011;3362;50.892;10.692;2023-05-06T12:01:32;1.38;;;0.80;;
6651;SDS011;3362;50.892;10.692;2023-05-06T12:03:58;2.45;;;1.15;;
6651;SDS011;3362;50.892;10.692;2023-05-06T12:06:31;6.18;;;3.25;;
6651;SDS011;3362;50.892;10.692;2023-05-06T12:08:57;3.10;;;1.88;;
6651;SDS011;3362;50.892;10.692;2023-05-06T12:11:23;2.35;;;1.08;;
6651;SDS011;3362;50.892;10.692;2023-05-06T12:13:51;6.18;;;2.97;;
6651;SDS011;3362;50.892;10.692;2023-05-06T12:16:17;4.72;;;1.40;;
6651;SDS011;3362;50.892;10.692;2023-05-06T12:18:43;6.50;;;2.63;;
6651;SDS011;3362;50.892;10.692;2023-05-06T12:21:10;3.08;;;1.67;;
6651;SDS011;3362;50.892;10.692;2023-05-06T12:23:36;2.20;;;1.50;;
6651;SDS011;3362;50.892;10.692;2023-05-06T12:26:14;2.35;;;1.50;;
6651;SDS011;3362;50.892;10.692;2023-05-06T12:28:41;2.83;;;1.55;;
6651;SDS011;3362;50.892;10.692;2023-05-06T12:31:18;2.03;;;1.02;;
6651;SDS011;3362;50.892;10.692;2023-05-06T12:33:45;3.75;;;2.47;;
6651;SDS011;3362;50.892;10.692;2023-05-06T12:36:12;6.22;;;3.08;;
6651;SDS011;3362;50.892;10.692;2023-05-06T12:38:48;14.48;;;10.13;;
6651;SDS011;3362;50.892;10.692;2023-05-06T12:41:14;63.58;;;36.28;;
6651;SDS011;3362;50.892;10.692;2023-05-06T12:43:40;27.25;;;14.85;;
6651;SDS011;3362;50.892;10.692;2023-05-06T12:46:07;30.92;;;16.65;;
6651;SDS011;3362;50.892;10.692;2023-05-06T12:48:35;22.60;;;13.35;;
6651;SDS011;3362;50.892;10.692;2023-05-06T12:51:15;5.72;;;4.25;;
6651;SDS011;3362;50.892;10.692;2023-05-06T12:53:41;4.22;;;2.17;;
6651;SDS011;3362;50.892;10.692;2023-05-06T12:56:08;7.53;;;4.88;;
6651;SDS011;3362;50.892;10.692;2023-05-06T12:58:34;4.35;;;2.33;;
6651;SDS011;3362;50.892;10.692;2023-05-06T13:01:01;3.53;;;1.70;;
6651;SDS011;3362;50.892;10.692;2023-05-06T13:03:27;1.90;;;0.85;;
6651;SDS011;3362;50.892;10.692;2023-05-06T13:05:55;0.60;;;0.60;;
6651;SDS011;3362;50.892;10.692;2023-05-06T13:08:21;1.83;;;0.80;;
6651;SDS011;3362;50.892;10.692;2023-05-06T13:10:47;0.88;;;0.65;;
6651;SDS011;3362;50.892;10.692;2023-05-06T13:13:14;0.95;;;0.80;;
6651;SDS011;3362;50.892;10.692;2023-05-06T13:15:40;2.40;;;0.73;;
6651;SDS011;3362;50.892;10.692;2023-05-06T13:18:06;4.95;;;0.70;;
6651;SDS011;3362;50.892;10.692;2023-05-06T13:20:33;0.85;;;0.70;;
6651;SDS011;3362;50.892;10.692;2023-05-06T13:23:00;1.65;;;0.60;;
6651;SDS011;3362;50.892;10.692;2023-05-06T13:25:27;7.18;;;0.82;;
6651;SDS011;3362;50.892;10.692;2023-05-06T13:27:54;1.38;;;0.47;;
6651;SDS011;3362;50.892;10.692;2023-05-06T13:30:20;0.70;;;0.70;;
6651;SDS011;3362;50.892;10.692;2023-05-06T13:32:46;0.47;;;0.45;;
6651;SDS011;3362;50.892;10.692;2023-05-06T13:35:12;0.80;;;0.60;;
6651;SDS011;3362;50.892;10.692;2023-05-06T13:37:38;1.50;;;0.80;;
6651;SDS011;3362;50.892;10.692;2023-05-06T13:40:07;3.05;;;1.70;;
6651;SDS011;3362;50.892;10.692;2023-05-06T13:42:35;2.42;;;0.50;;
6651;SDS011;3362;50.892;10.692;2023-05-06T13:45:01;4.80;;;3.05;;
6651;SDS011;3362;50.892;10.692;2023-05-06T13:47:27;2.08;;;0.70;;
6651;SDS011;3362;50.892;10.692;2023-05-06T13:49:53;1.27;;;0.60;;
6651;SDS011;3362;50.892;10.692;2023-05-06T13:52:19;0.90;;;0.60;;
6651;SDS011;3362;50.892;10.692;2023-05-06T13:54:46;1.42;;;0.40;;
6651;SDS011;3362;50.892;10.692;2023-05-06T13:57:13;0.90;;;0.43;;
6651;SDS011;3362;50.892;10.692;2023-05-06T13:59:39;4.78;;;0.57;;
6651;SDS011;3362;50.892;10.692;2023-05-06T14:02:05;1.17;;;0.50;;
6651;SDS011;3362;50.892;10.692;2023-05-06T14:04:32;0.70;;;0.55;;
6651;SDS011;3362;50.892;10.692;2023-05-06T14:06:58;0.47;;;0.47;;
6651;SDS011;3362;50.892;10.692;2023-05-06T14:09:24;1.23;;;0.75;;
6651;SDS011;3362;50.892;10.692;2023-05-06T14:11:50;1.02;;;0.52;;
6651;SDS011;3362;50.892;10.692;2023-05-06T14:14:18;0.50;;;0.50;;
6651;SDS011;3362;50.892;10.692;2023-05-06T14:16:44;0.90;;;0.50;;
6651;SDS011;3362;50.892;10.692;2023-05-06T14:19:10;0.70;;;0.60;;
6651;SDS011;3362;50.892;10.692;2023-05-06T14:21:36;0.68;;;0.50;;
6651;SDS011;3362;50.892;10.692;2023-05-06T14:24:03;2.15;;;0.43;;
6651;SDS011;3362;50.892;10.692;2023-05-06T14:26:29;2.35;;;0.57;;
6651;SDS011;3362;50.892;10.692;2023-05-06T14:28:55;0.75;;;0.50;;
6651;SDS011;3362;50.892;10.692;2023-05-06T14:31:23;0.93;;;0.70;;
6651;SDS011;3362;50.892;10.692;2023-05-06T14:33:50;1.45;;;0.50;;
6651;SDS011;3362;50.892;10.692;2023-05-06T14:36:17;1.48;;;0.73;;
6651;SDS011;3362;50.892;10.692;2023-05-06T14:38:43;1.70;;;0.73;;
6651;SDS011;3362;50.892;10.692;2023-05-06T14:41:09;2.28;;;0.60;;
6651;SDS011;3362;50.892;10.692;2023-05-06T14:43:35;2.67;;;0.52;;
6651;SDS011;3362;50.892;10.692;2023-05-06T14:46:02;2.28;;;0.80;;
6651;SDS011;3362;50.892;10.692;2023-05-06T14:48:29;0.65;;;0.57;;
6651;SDS011;3362;50.892;10.692;2023-05-06T14:50:55;2.13;;;0.60;;
6651;SDS011;3362;50.892;10.692;2023-05-06T14:53:22;0.68;;;0.57;;
6651;SDS011;3362;50.892;10.692;2023-05-06T14:55:48;2.88;;;0.85;;
6651;SDS011;3362;50.892;10.692;2023-05-06T14:58:14;1.17;;;0.60;;